ZPPP

Kunming Wujiaba International Airport

Kunming, China
TAF ZPPP 181308Z 1818/1918 23005MPS 9999 FEW026 TX18/1908Z TN04/1823Z
Issued Valid From Valid To
Jan-18 @ 13:08 UTC
(8 hours ago)
Jan-18 @ 18:00 UTC
(3 hours ago)
Jan-19 @ 18:00 UTC
(in 21 hours)
Jan-18 @ 18:00 to Jan-19 @ 18:00
TAF ZPPP 181308Z 1818/1918 23005MPS 9999 FEW026 TX18/1908Z TN04/1823Z
Wind Visibility Clouds
230° at 10 knots 10,000+ meters
  • Few at 2,600' AGL
TAF ZPPP 181308Z 1818/1918 23005MPS 9999 FEW026 TX18/1908Z TN04/1823Z
Issued Jan-18 @ 13:08 UTC
(8 hours ago)
Valid From Jan-18 @ 18:00 UTC
(3 hours ago)
Valid To Jan-19 @ 18:00 UTC
(in 21 hours)
Jan-18 @ 18:00 - Jan-19 @ 18:00
Wind Visibility
230° at 10 knots 10,000+ meters
Clouds
  • Few at 2,600' AGL